createdAt,value
2018-11-07T00:02:22.574Z,54.00
2018-11-07T00:04:50.725Z,54.70
2018-11-07T00:07:18.849Z,54.90
2018-11-07T00:09:47.025Z,53.70
2018-11-07T00:12:15.181Z,52.80
2018-11-07T00:14:43.369Z,52.20
2018-11-07T00:17:11.512Z,52.50
2018-11-07T00:19:39.701Z,52.90
2018-11-07T00:22:07.937Z,53.50
2018-11-07T00:24:36.141Z,53.00
2018-11-07T00:27:04.305Z,53.70
2018-11-07T00:29:32.517Z,54.40
2018-11-07T00:32:00.949Z,55.80
2018-11-07T00:34:29.385Z,55.00
2018-11-07T00:36:57.546Z,53.50
2018-11-07T00:39:25.783Z,52.40
2018-11-07T00:41:53.956Z,50.80
2018-11-07T00:44:22.222Z,50.10
2018-11-07T00:46:50.357Z,49.00
2018-11-07T00:49:18.761Z,48.10
2018-11-07T00:51:46.989Z,46.90
2018-11-07T00:54:15.137Z,45.10
2018-11-07T00:56:43.314Z,44.60
2018-11-07T00:59:11.486Z,46.80
2018-11-07T01:01:39.710Z,49.00
2018-11-07T01:04:07.869Z,50.00
2018-11-07T01:06:36.226Z,50.70
2018-11-07T01:09:05.989Z,52.20
2018-11-07T01:11:34.174Z,52.30
2018-11-07T01:14:02.374Z,51.30
2018-11-07T01:16:30.598Z,50.50
2018-11-07T01:18:58.717Z,49.60
2018-11-07T01:21:26.889Z,50.10
2018-11-07T01:23:55.033Z,50.70
2018-11-07T01:26:23.195Z,51.50
2018-11-07T01:28:51.370Z,51.80
2018-11-07T01:31:20.085Z,52.40
2018-11-07T01:33:48.289Z,51.30
2018-11-07T01:36:16.634Z,51.00
2018-11-07T01:38:44.809Z,51.90
2018-11-07T01:41:13.009Z,52.30
2018-11-07T01:43:41.237Z,53.00
2018-11-07T01:46:09.409Z,52.10
2018-11-07T01:48:37.633Z,52.50
2018-11-07T01:51:06.021Z,51.70
2018-11-07T01:53:34.167Z,49.80
2018-11-07T01:56:02.306Z,47.50
2018-11-07T01:58:30.473Z,46.00
2018-11-07T02:00:58.629Z,46.80
2018-11-07T02:03:26.814Z,47.50
2018-11-07T02:05:54.965Z,47.40
2018-11-07T02:08:27.384Z,47.20
2018-11-07T02:10:55.585Z,48.00
2018-11-07T02:13:23.710Z,48.10
2018-11-07T02:15:51.893Z,48.00
2018-11-07T02:18:20.046Z,47.60
2018-11-07T02:20:48.249Z,50.50
2018-11-07T02:23:16.414Z,51.90
2018-11-07T02:25:44.692Z,53.10
2018-11-07T02:28:12.893Z,53.50
2018-11-07T02:30:41.049Z,54.00
2018-11-07T02:33:09.215Z,54.30
2018-11-07T02:35:37.425Z,54.70
2018-11-07T02:38:05.585Z,55.00
2018-11-07T02:40:33.824Z,56.30
2018-11-07T02:43:02.314Z,57.10
2018-11-07T02:45:30.509Z,57.60
2018-11-07T02:47:58.730Z,58.90
2018-11-07T02:50:27.579Z,58.10
2018-11-07T02:52:55.735Z,58.90
2018-11-07T02:55:23.901Z,58.80
2018-11-07T02:57:52.066Z,59.50
2018-11-07T03:00:21.227Z,59.20
2018-11-07T03:02:49.393Z,59.80
2018-11-07T03:05:17.570Z,60.60
2018-11-07T03:07:45.737Z,60.70
2018-11-07T03:10:14.164Z,60.70
2018-11-07T03:12:42.443Z,61.20
2018-11-07T03:15:10.925Z,61.40
2018-11-07T03:17:39.125Z,61.20
2018-11-07T03:20:08.902Z,61.60
2018-11-07T03:22:37.026Z,62.30
2018-11-07T03:25:05.297Z,62.40
2018-11-07T03:27:33.449Z,62.60
2018-11-07T03:30:01.569Z,62.00
2018-11-07T03:32:29.743Z,61.10
2018-11-07T03:34:58.215Z,60.60
2018-11-07T03:37:26.329Z,60.60
2018-11-07T03:39:54.572Z,60.40
2018-11-07T03:42:22.706Z,59.80
2018-11-07T03:44:50.881Z,57.70
2018-11-07T03:47:19.080Z,55.60
2018-11-07T03:49:47.262Z,54.30
2018-11-07T03:52:15.609Z,54.10
2018-11-07T03:54:43.777Z,53.40
2018-11-07T03:57:11.941Z,52.60
2018-11-07T03:59:40.097Z,52.40
2018-11-07T04:02:08.266Z,52.00
2018-11-07T04:04:36.462Z,50.70
2018-11-07T04:07:04.771Z,50.90
2018-11-07T04:09:34.447Z,51.00
2018-11-07T04:12:02.611Z,52.10
2018-11-07T04:14:30.770Z,54.50
2018-11-07T04:16:58.949Z,54.90
2018-11-07T04:19:27.133Z,57.40
2018-11-07T04:21:55.297Z,56.60
2018-11-07T04:24:23.447Z,57.40
2018-11-07T04:26:51.641Z,58.10
2018-11-07T04:29:19.789Z,57.60
2018-11-07T04:31:47.950Z,53.40
2018-11-07T04:34:16.118Z,51.90
2018-11-07T04:36:44.254Z,53.30
2018-11-07T04:39:12.589Z,51.40
2018-11-07T04:41:40.678Z,51.20
2018-11-07T04:44:08.842Z,53.30
2018-11-07T04:46:37.086Z,53.50
2018-11-07T04:49:05.232Z,54.90
2018-11-07T04:51:33.437Z,56.30
2018-11-07T04:54:01.590Z,57.50
2018-11-07T04:56:29.717Z,59.40
2018-11-07T04:58:57.869Z,62.10
2018-11-07T05:01:26.026Z,63.60
2018-11-07T05:03:54.206Z,64.00
2018-11-07T05:06:22.393Z,65.90
2018-11-07T05:08:50.757Z,65.80
2018-11-07T05:11:18.877Z,65.60
2018-11-07T05:13:47.106Z,65.60
2018-11-07T05:16:15.269Z,66.10
2018-11-07T05:18:43.421Z,66.70
2018-11-07T05:21:11.632Z,66.30
2018-11-07T05:23:39.813Z,66.10
2018-11-07T05:26:08.153Z,65.70
2018-11-07T05:28:36.261Z,66.40
2018-11-07T05:31:04.458Z,66.00
2018-11-07T05:33:32.646Z,65.50
2018-11-07T05:36:00.798Z,65.70
2018-11-07T05:38:29.070Z,64.40
2018-11-07T05:40:57.290Z,64.50
2018-11-07T05:43:25.420Z,65.10
2018-11-07T05:45:53.633Z,64.60
2018-11-07T05:48:21.785Z,64.30
2018-11-07T05:50:49.917Z,64.20
2018-11-07T05:53:18.115Z,64.30
2018-11-07T05:55:46.256Z,64.20
2018-11-07T05:58:14.441Z,63.90
2018-11-07T06:00:42.578Z,63.60
2018-11-07T06:03:10.773Z,63.20
2018-11-07T06:05:38.921Z,64.10
2018-11-07T06:08:07.082Z,62.50
2018-11-07T06:10:35.237Z,59.30
2018-11-07T06:13:03.406Z,57.10
2018-11-07T06:15:31.581Z,55.90
2018-11-07T06:18:00.098Z,53.60
2018-11-07T06:20:28.274Z,53.20
2018-11-07T06:22:56.481Z,53.50
2018-11-07T06:25:24.641Z,53.40
2018-11-07T06:27:52.795Z,50.70
2018-11-07T06:30:21.005Z,51.20
2018-11-07T06:32:49.165Z,52.40
2018-11-07T06:35:17.353Z,54.00
2018-11-07T06:37:45.537Z,52.40
2018-11-07T06:40:13.697Z,52.40
2018-11-07T06:42:41.861Z,52.40
2018-11-07T06:45:10.645Z,52.50
2018-11-07T06:47:38.805Z,51.00
2018-11-07T06:50:09.368Z,50.70
2018-11-07T06:52:37.743Z,49.70
2018-11-07T06:55:06.706Z,50.30
2018-11-07T06:57:34.877Z,50.30
2018-11-07T07:00:03.274Z,50.40
2018-11-07T07:02:31.433Z,51.00
2018-11-07T07:04:59.598Z,50.90
2018-11-07T07:07:27.801Z,50.30
2018-11-07T07:09:55.973Z,49.80
2018-11-07T07:12:24.145Z,49.90
2018-11-07T07:14:52.327Z,52.90
2018-11-07T07:17:22.238Z,54.70
2018-11-07T07:19:50.405Z,55.30
2018-11-07T07:22:18.619Z,55.10
2018-11-07T07:24:46.792Z,53.90
2018-11-07T07:27:14.937Z,53.70
2018-11-07T07:29:43.156Z,56.50
2018-11-07T07:32:11.237Z,56.90
2018-11-07T07:34:39.430Z,56.80
2018-11-07T07:37:07.573Z,58.50
2018-11-07T07:39:36.255Z,62.40
2018-11-07T07:42:04.430Z,64.10
2018-11-07T07:44:32.627Z,63.60
2018-11-07T07:47:00.829Z,64.80
2018-11-07T07:49:29.062Z,64.50
2018-11-07T07:51:57.234Z,65.70
2018-11-07T07:54:25.410Z,66.90
2018-11-07T07:56:53.618Z,67.50
2018-11-07T07:59:21.805Z,68.30
2018-11-07T08:01:49.969Z,68.30
2018-11-07T08:04:18.198Z,68.00
2018-11-07T08:06:46.427Z,68.00
2018-11-07T08:09:14.903Z,67.80
2018-11-07T08:11:43.033Z,67.30
2018-11-07T08:14:11.194Z,67.20
2018-11-07T08:16:39.349Z,66.90
2018-11-07T08:19:08.424Z,65.90
2018-11-07T08:21:36.569Z,65.80
2018-11-07T08:24:04.746Z,65.90
2018-11-07T08:26:33.026Z,63.50
2018-11-07T08:29:01.237Z,62.90
2018-11-07T08:31:29.354Z,62.80
2018-11-07T08:33:57.645Z,61.40
2018-11-07T08:36:25.817Z,60.40
2018-11-07T08:38:53.976Z,60.30
2018-11-07T08:41:22.145Z,60.30
2018-11-07T08:43:50.298Z,59.70
2018-11-07T08:46:19.073Z,58.90
2018-11-07T08:48:47.402Z,58.90
2018-11-07T08:51:15.563Z,57.70
2018-11-07T08:53:43.728Z,57.00
2018-11-07T08:56:12.353Z,56.60
2018-11-07T08:58:40.746Z,56.40
2018-11-07T09:01:08.897Z,54.40
2018-11-07T09:03:37.057Z,54.10
2018-11-07T09:06:05.247Z,53.10
2018-11-07T09:08:34.433Z,53.30
2018-11-07T09:11:02.679Z,52.20
2018-11-07T09:13:30.910Z,53.00
2018-11-07T09:15:59.061Z,52.40
2018-11-07T09:18:27.233Z,51.00
2018-11-07T09:20:55.401Z,49.20
2018-11-07T09:23:23.553Z,49.40
2018-11-07T09:25:51.693Z,48.50
2018-11-07T09:28:19.916Z,49.80
2018-11-07T09:30:48.089Z,48.90
2018-11-07T09:33:16.238Z,48.90
2018-11-07T09:35:44.397Z,48.40
2018-11-07T09:38:12.573Z,46.30
2018-11-07T09:40:40.702Z,44.00
2018-11-07T09:43:08.863Z,43.90
2018-11-07T09:45:37.009Z,42.80
2018-11-07T09:48:05.254Z,39.90
2018-11-07T09:50:33.407Z,40.70
2018-11-07T09:53:01.596Z,40.20
2018-11-07T09:55:29.745Z,39.10
2018-11-07T09:57:57.885Z,40.40
2018-11-07T10:00:26.085Z,40.40
2018-11-07T10:02:54.273Z,39.90
2018-11-07T10:05:22.486Z,38.50
2018-11-07T10:07:50.604Z,37.30
2018-11-07T10:10:21.721Z,38.20
2018-11-07T10:12:50.098Z,36.90
2018-11-07T10:15:18.673Z,34.00
2018-11-07T10:17:46.886Z,34.50
2018-11-07T10:20:16.622Z,35.00
2018-11-07T10:22:45.238Z,34.00
2018-11-07T10:25:13.937Z,32.50
2018-11-07T10:27:42.582Z,32.50
2018-11-07T10:30:12.628Z,33.50
2018-11-07T10:32:41.337Z,30.70
2018-11-07T10:35:09.846Z,29.90
2018-11-07T10:37:38.024Z,30.00
2018-11-07T10:40:08.597Z,30.10
2018-11-07T10:42:37.222Z,29.00
2018-11-07T10:45:05.730Z,28.70
2018-11-07T10:47:33.877Z,28.10
2018-11-07T10:50:02.209Z,28.50
2018-11-07T10:52:30.374Z,27.40
2018-11-07T10:54:58.558Z,27.40
2018-11-07T10:57:26.782Z,27.50
2018-11-07T10:59:54.978Z,27.50
2018-11-07T11:02:28.453Z,26.30
2018-11-07T11:04:56.868Z,25.30
2018-11-07T11:07:25.155Z,24.80
2018-11-07T11:09:53.293Z,24.90
2018-11-07T11:12:21.842Z,23.70
2018-11-07T11:14:50.021Z,24.00
2018-11-07T11:17:18.263Z,23.70
2018-11-07T11:19:46.423Z,21.60
2018-11-07T11:22:14.588Z,20.80
2018-11-07T11:24:42.773Z,21.90
2018-11-07T11:27:10.955Z,22.10
2018-11-07T11:29:39.283Z,20.90
2018-11-07T11:32:07.437Z,20.00
2018-11-07T11:34:35.751Z,21.00
2018-11-07T11:37:03.741Z,18.20
2018-11-07T11:39:31.914Z,18.40
2018-11-07T11:42:00.086Z,18.30
2018-11-07T11:44:28.285Z,17.60
2018-11-07T11:46:56.398Z,17.60
2018-11-07T11:49:24.516Z,18.00
2018-11-07T11:51:52.617Z,17.50
2018-11-07T11:54:20.769Z,18.30
2018-11-07T11:56:48.928Z,17.60
2018-11-07T11:59:17.223Z,17.60
2018-11-07T12:01:45.202Z,18.00
2018-11-07T12:04:13.394Z,17.90
2018-11-07T12:06:41.579Z,19.10
2018-11-07T12:09:10.386Z,18.80
2018-11-07T12:11:38.573Z,18.10
2018-11-07T12:14:06.686Z,16.20
2018-11-07T12:16:34.906Z,16.10
2018-11-07T12:19:03.087Z,16.50
2018-11-07T12:21:31.253Z,15.00
2018-11-07T12:23:59.431Z,14.60
2018-11-07T12:26:27.554Z,15.90
2018-11-07T12:28:56.638Z,14.80
2018-11-07T12:31:24.806Z,14.30
2018-11-07T12:33:52.993Z,13.80
2018-11-07T12:36:21.168Z,14.30
2018-11-07T12:38:50.141Z,14.60
2018-11-07T12:41:18.333Z,14.70
2018-11-07T12:43:46.518Z,14.00
2018-11-07T12:46:14.685Z,13.80
2018-11-07T12:48:42.990Z,12.90
2018-11-07T12:51:11.154Z,13.10
2018-11-07T12:53:39.353Z,14.40
2018-11-07T12:56:07.570Z,14.50
2018-11-07T12:58:35.727Z,12.20
2018-11-07T13:01:03.965Z,12.40
2018-11-07T13:03:32.167Z,12.30
2018-11-07T13:06:00.390Z,12.20
2018-11-07T13:08:28.586Z,11.90
2018-11-07T13:10:57.181Z,11.30
2018-11-07T13:13:25.318Z,11.10
2018-11-07T13:15:53.745Z,10.10
2018-11-07T13:18:21.889Z,9.50
2018-11-07T13:20:50.058Z,7.90
2018-11-07T13:23:18.238Z,6.80
2018-11-07T13:25:46.405Z,6.60
2018-11-07T13:28:14.759Z,8.10
2018-11-07T13:30:42.996Z,7.10
2018-11-07T13:33:11.170Z,6.90
2018-11-07T13:35:39.293Z,6.90
2018-11-07T13:38:07.898Z,6.60
2018-11-07T13:40:35.806Z,6.40
2018-11-07T13:43:04.029Z,6.80
2018-11-07T13:45:32.387Z,7.90
2018-11-07T13:48:00.482Z,8.20
2018-11-07T13:50:28.637Z,7.90
2018-11-07T13:52:56.814Z,7.90
2018-11-07T13:55:24.934Z,8.90
2018-11-07T13:57:53.133Z,9.50
2018-11-07T14:00:22.813Z,9.30
2018-11-07T14:02:51.574Z,10.00
2018-11-07T14:05:19.912Z,10.00
2018-11-07T14:07:47.967Z,10.60
2018-11-07T14:10:21.353Z,10.80
2018-11-07T14:12:51.207Z,11.20
2018-11-07T14:15:24.702Z,11.30
2018-11-07T14:17:53.284Z,11.80
2018-11-07T14:20:21.418Z,11.90
2018-11-07T14:22:49.624Z,12.00
2018-11-07T14:25:17.882Z,12.20
2018-11-07T14:27:46.359Z,12.40
2018-11-07T14:30:15.535Z,12.50
2018-11-07T14:32:54.319Z,12.90
2018-11-07T14:35:22.836Z,12.90
2018-11-07T14:37:51.298Z,13.10
2018-11-07T14:40:19.677Z,12.90
2018-11-07T14:42:48.709Z,13.50
2018-11-07T14:45:16.821Z,13.80
2018-11-07T14:47:45.088Z,13.30
2018-11-07T14:50:13.600Z,13.50
2018-11-07T14:52:41.831Z,13.70
2018-11-07T14:55:10.763Z,14.00
2018-11-07T14:57:38.977Z,14.40
2018-11-07T15:00:09.966Z,15.10
2018-11-07T15:02:38.378Z,14.90
2018-11-07T15:05:07.870Z,15.20
2018-11-07T15:07:36.105Z,15.40
2018-11-07T15:10:04.497Z,15.70
2018-11-07T15:12:32.685Z,15.70
2018-11-07T15:15:00.830Z,15.80
2018-11-07T15:17:28.960Z,15.60
2018-11-07T15:19:57.157Z,15.40
2018-11-07T15:22:25.317Z,15.90
2018-11-07T15:24:53.515Z,16.40
2018-11-07T15:27:21.687Z,16.30
2018-11-07T15:29:49.870Z,16.40
2018-11-07T15:32:18.106Z,17.00
2018-11-07T15:34:46.293Z,17.30
2018-11-07T15:37:14.482Z,17.90
2018-11-07T15:39:42.665Z,17.80
2018-11-07T15:42:10.815Z,17.60
2018-11-07T15:44:39.194Z,17.80
2018-11-07T15:47:07.350Z,17.90
2018-11-07T15:49:39.778Z,17.80
2018-11-07T15:52:07.980Z,18.00
2018-11-07T15:54:36.186Z,18.30
2018-11-07T15:57:04.293Z,18.40
2018-11-07T15:59:32.450Z,18.80
2018-11-07T16:02:00.629Z,19.20
2018-11-07T16:04:28.794Z,19.00
2018-11-07T16:06:56.946Z,18.80
2018-11-07T16:09:25.091Z,19.00
2018-11-07T16:11:53.307Z,19.30
2018-11-07T16:14:21.584Z,20.10
2018-11-07T16:16:49.837Z,20.00
2018-11-07T16:19:18.017Z,20.10
2018-11-07T16:21:46.259Z,20.40
2018-11-07T16:24:14.441Z,20.50
2018-11-07T16:26:42.859Z,20.80
2018-11-07T16:29:11.084Z,20.90
2018-11-07T16:31:39.240Z,20.90
2018-11-07T16:34:07.401Z,21.00
2018-11-07T16:36:35.607Z,21.10
2018-11-07T16:39:06.621Z,22.00
2018-11-07T16:41:34.889Z,22.50
2018-11-07T16:44:02.978Z,22.40
2018-11-07T16:46:37.590Z,22.60
2018-11-07T16:49:06.049Z,23.10
2018-11-07T16:51:35.278Z,23.10
2018-11-07T16:54:03.541Z,23.30
2018-11-07T16:56:31.742Z,23.10
2018-11-07T16:58:59.966Z,23.10
2018-11-07T17:01:28.093Z,23.30
2018-11-07T17:03:56.253Z,23.20
2018-11-07T17:06:24.454Z,23.50
2018-11-07T17:08:52.613Z,23.40
2018-11-07T17:11:20.789Z,23.40
2018-11-07T17:13:48.965Z,23.50
2018-11-07T17:16:17.241Z,23.50
2018-11-07T17:18:45.380Z,24.00
2018-11-07T17:21:13.538Z,24.10
2018-11-07T17:23:41.722Z,24.30
2018-11-07T17:26:09.887Z,24.50
2018-11-07T17:28:37.998Z,24.60
2018-11-07T17:31:06.190Z,24.80
2018-11-07T17:33:34.403Z,25.10
2018-11-07T17:36:02.652Z,25.40
2018-11-07T17:38:30.870Z,25.70
2018-11-07T17:40:59.053Z,25.60
2018-11-07T17:43:27.208Z,25.70
2018-11-07T17:45:55.362Z,25.80
2018-11-07T17:48:23.609Z,26.40
2018-11-07T17:50:51.736Z,26.60
2018-11-07T17:53:21.292Z,26.50
2018-11-07T17:55:49.441Z,26.70
2018-11-07T17:58:17.697Z,26.70
2018-11-07T18:00:45.873Z,26.80
2018-11-07T18:03:14.046Z,27.00
2018-11-07T18:05:42.289Z,28.30
2018-11-07T18:08:10.457Z,29.20
2018-11-07T18:10:39.055Z,29.40
2018-11-07T18:13:08.897Z,28.40
2018-11-07T18:15:37.222Z,27.10
2018-11-07T18:18:05.990Z,27.10
2018-11-07T18:20:34.298Z,27.00
2018-11-07T18:23:02.461Z,26.10
2018-11-07T18:25:30.579Z,26.00
2018-11-07T18:27:58.777Z,25.90
2018-11-07T18:30:26.937Z,25.90
2018-11-07T18:32:55.122Z,25.80
2018-11-07T18:35:23.462Z,25.70
2018-11-07T18:37:51.548Z,25.30
2018-11-07T18:40:20.605Z,25.50
2018-11-07T18:42:48.889Z,25.10
2018-11-07T18:45:17.244Z,25.30
2018-11-07T18:47:46.381Z,25.50
2018-11-07T18:50:16.077Z,25.30
2018-11-07T18:52:44.453Z,25.80
2018-11-07T18:55:13.816Z,25.80
2018-11-07T18:57:42.544Z,25.60
2018-11-07T19:00:13.473Z,26.00
2018-11-07T19:02:42.345Z,27.00
2018-11-07T19:05:11.165Z,26.20
2018-11-07T19:07:39.297Z,26.50
2018-11-07T19:10:09.994Z,26.90
2018-11-07T19:12:38.340Z,26.90
2018-11-07T19:15:08.145Z,26.90
2018-11-07T19:17:36.437Z,27.00
2018-11-07T19:20:04.839Z,27.00
2018-11-07T19:22:32.943Z,27.20
2018-11-07T19:25:01.110Z,27.80
2018-11-07T19:27:29.278Z,28.50
2018-11-07T19:29:57.430Z,30.70
2018-11-07T19:32:25.593Z,32.40
2018-11-07T19:34:53.733Z,31.00
2018-11-07T19:37:21.847Z,31.30
2018-11-07T19:39:49.994Z,31.00
2018-11-07T19:42:18.179Z,30.60
2018-11-07T19:44:46.325Z,31.60
2018-11-07T19:47:14.514Z,32.00
2018-11-07T19:49:42.677Z,30.90
2018-11-07T19:52:10.830Z,32.00
2018-11-07T19:54:39.008Z,32.70
2018-11-07T19:57:07.145Z,33.00
2018-11-07T19:59:35.400Z,33.50
2018-11-07T20:02:03.571Z,33.40
2018-11-07T20:04:31.757Z,33.80
2018-11-07T20:07:00.007Z,33.90
2018-11-07T20:09:28.244Z,34.80
2018-11-07T20:11:56.509Z,35.20
2018-11-07T20:14:24.681Z,35.50
2018-11-07T20:16:52.885Z,35.60
2018-11-07T20:19:21.040Z,36.20
2018-11-07T20:21:49.657Z,35.90
2018-11-07T20:24:17.817Z,36.10
2018-11-07T20:26:45.990Z,36.00
2018-11-07T20:29:14.141Z,36.50
2018-11-07T20:31:42.312Z,36.50
2018-11-07T20:34:10.485Z,36.50
2018-11-07T20:36:38.650Z,36.60
2018-11-07T20:39:08.948Z,36.50
2018-11-07T20:41:37.113Z,36.10
2018-11-07T20:44:05.696Z,36.00
2018-11-07T20:46:33.902Z,35.70
2018-11-07T20:49:02.188Z,35.50
2018-11-07T20:51:30.250Z,35.40
2018-11-07T20:53:58.490Z,35.30
2018-11-07T20:56:26.677Z,35.30
2018-11-07T20:58:54.817Z,35.50
2018-11-07T21:01:23.214Z,35.50
2018-11-07T21:03:51.353Z,35.50
2018-11-07T21:06:19.677Z,35.60
2018-11-07T21:08:47.849Z,36.30
2018-11-07T21:11:16.001Z,35.50
2018-11-07T21:13:44.146Z,35.90
2018-11-07T21:16:12.325Z,36.00
2018-11-07T21:18:40.471Z,35.30
2018-11-07T21:21:08.605Z,35.50
2018-11-07T21:23:36.873Z,35.50
2018-11-07T21:26:05.053Z,36.00
2018-11-07T21:28:33.216Z,36.20
2018-11-07T21:31:01.408Z,36.70
2018-11-07T21:33:29.700Z,37.20
2018-11-07T21:35:57.793Z,36.80
2018-11-07T21:38:25.977Z,36.90
2018-11-07T21:40:54.146Z,36.60
2018-11-07T21:43:22.382Z,36.90
2018-11-07T21:45:50.565Z,37.00
2018-11-07T21:48:18.745Z,36.90
2018-11-07T21:50:46.990Z,36.90
2018-11-07T21:53:15.174Z,37.20
2018-11-07T21:55:43.364Z,37.20
2018-11-07T21:58:11.622Z,37.70
2018-11-07T22:00:39.785Z,37.90
2018-11-07T22:03:09.749Z,38.30
2018-11-07T22:05:37.901Z,37.80
2018-11-07T22:08:06.125Z,38.40
2018-11-07T22:10:34.260Z,39.70
2018-11-07T22:13:02.423Z,40.50
2018-11-07T22:15:30.564Z,41.50
2018-11-07T22:17:58.744Z,42.60
2018-11-07T22:20:26.907Z,42.70
2018-11-07T22:22:55.049Z,43.10
2018-11-07T22:25:23.246Z,43.30
2018-11-07T22:27:51.402Z,42.70
2018-11-07T22:30:19.565Z,43.10
2018-11-07T22:32:48.562Z,43.10
2018-11-07T22:35:17.669Z,42.50
2018-11-07T22:37:46.325Z,43.30
2018-11-07T22:40:15.697Z,42.80
2018-11-07T22:42:44.019Z,43.00
2018-11-07T22:45:12.801Z,43.40
2018-11-07T22:47:41.021Z,43.00
2018-11-07T22:50:10.792Z,43.00
2018-11-07T22:52:39.273Z,43.10
2018-11-07T22:55:07.949Z,43.50
2018-11-07T22:57:37.159Z,43.80
2018-11-07T23:00:14.259Z,44.10
2018-11-07T23:02:42.409Z,44.70
2018-11-07T23:05:10.597Z,45.00
2018-11-07T23:07:38.754Z,44.80
2018-11-07T23:10:06.938Z,44.80
2018-11-07T23:12:35.102Z,45.10
2018-11-07T23:15:03.229Z,43.70
2018-11-07T23:17:31.361Z,44.40
2018-11-07T23:19:59.553Z,44.70
2018-11-07T23:22:27.729Z,44.30
2018-11-07T23:24:55.905Z,44.00
2018-11-07T23:27:24.081Z,44.60
2018-11-07T23:29:52.316Z,44.50
2018-11-07T23:32:20.422Z,45.10
2018-11-07T23:34:48.570Z,45.00
2018-11-07T23:37:16.737Z,45.00
2018-11-07T23:39:44.934Z,45.10
2018-11-07T23:42:13.251Z,45.20
2018-11-07T23:44:41.389Z,45.60
2018-11-07T23:47:09.785Z,45.80
2018-11-07T23:49:37.941Z,45.50
2018-11-07T23:52:06.424Z,46.00
2018-11-07T23:54:34.541Z,45.40
2018-11-07T23:57:02.734Z,45.40
2018-11-07T23:59:30.851Z,45.80
